createdAt,value
2023-04-15T00:03:29.055Z,9.08
2023-04-15T00:07:31.906Z,9.03
2023-04-15T00:11:34.034Z,8.98
2023-04-15T00:15:35.847Z,8.91
2023-04-15T00:19:37.773Z,8.85
2023-04-15T00:23:39.610Z,8.78
2023-04-15T00:27:42.358Z,8.72
2023-04-15T00:31:44.914Z,8.67
2023-04-15T00:35:47.219Z,8.61
2023-04-15T00:39:49.441Z,8.53
2023-04-15T00:43:51.406Z,8.48
2023-04-15T00:47:54.001Z,8.43
2023-04-15T00:51:56.462Z,8.38
2023-04-15T00:55:59.206Z,8.36
2023-04-15T01:00:01.354Z,8.32
2023-04-15T01:04:03.675Z,8.27
2023-04-15T01:08:06.515Z,8.22
2023-04-15T01:12:12.211Z,8.21
2023-04-15T01:16:14.848Z,8.16
2023-04-15T01:20:17.541Z,8.12
2023-04-15T01:24:19.798Z,8.06
2023-04-15T01:28:21.736Z,8.01
2023-04-15T01:32:24.219Z,7.99
2023-04-15T01:36:27.090Z,7.98
2023-04-15T01:40:29.196Z,7.95
2023-04-15T01:44:32.881Z,7.94
2023-04-15T01:48:34.836Z,7.93
2023-04-15T01:52:38.962Z,7.91
2023-04-15T01:56:40.852Z,7.89
2023-04-15T02:00:43.029Z,7.88
2023-04-15T02:04:45.537Z,7.86
2023-04-15T02:08:47.299Z,7.84
2023-04-15T02:12:49.309Z,7.85
2023-04-15T02:16:51.333Z,7.82
2023-04-15T02:20:53.368Z,7.78
2023-04-15T02:24:55.268Z,7.74
2023-04-15T02:28:57.099Z,7.67
2023-04-15T02:32:58.989Z,7.61
2023-04-15T02:37:01.350Z,7.56
2023-04-15T02:41:03.453Z,7.48
2023-04-15T02:45:06.972Z,7.43
2023-04-15T02:49:11.127Z,7.40
2023-04-15T02:53:14.782Z,7.36
2023-04-15T02:57:16.674Z,7.32
2023-04-15T03:01:18.627Z,7.26
2023-04-15T03:05:20.512Z,7.21
2023-04-15T03:09:25.172Z,7.19
2023-04-15T03:13:27.777Z,7.15
2023-04-15T03:17:31.700Z,7.10
2023-04-15T03:21:34.253Z,7.05
2023-04-15T03:25:37.626Z,7.01
2023-04-15T03:29:41.862Z,6.95
2023-04-15T03:33:44.132Z,6.92
2023-04-15T03:37:46.067Z,6.87
2023-04-15T03:41:47.920Z,6.84
2023-04-15T03:45:49.756Z,6.80
2023-04-15T03:49:51.622Z,6.78
2023-04-15T03:53:53.433Z,6.74
2023-04-15T03:57:55.252Z,6.71
2023-04-15T04:01:57.248Z,6.68
2023-04-15T04:05:59.207Z,6.66
2023-04-15T04:10:01.097Z,6.63
2023-04-15T04:14:02.925Z,6.60
2023-04-15T04:18:04.766Z,6.57
2023-04-15T04:22:06.859Z,6.54
2023-04-15T04:26:08.687Z,6.53
2023-04-15T04:30:10.836Z,6.51
2023-04-15T04:34:12.651Z,6.49
2023-04-15T04:38:14.450Z,6.46
2023-04-15T04:42:16.444Z,6.46
2023-04-15T04:46:18.338Z,6.41
2023-04-15T04:50:20.183Z,6.37
2023-04-15T04:54:22.571Z,6.34
2023-04-15T04:58:24.399Z,6.33
2023-04-15T05:02:27.813Z,6.32
2023-04-15T05:06:30.809Z,6.31
2023-04-15T05:10:32.834Z,6.34
2023-04-15T05:14:34.808Z,6.31
2023-04-15T05:18:36.977Z,6.30
2023-04-15T05:22:38.838Z,6.30
2023-04-15T05:26:41.936Z,6.34
2023-04-15T05:30:44.659Z,6.39
2023-04-15T05:34:46.543Z,6.45
2023-04-15T05:38:48.390Z,6.50
2023-04-15T05:42:50.230Z,6.55
2023-04-15T05:46:52.148Z,6.60
2023-04-15T05:50:54.211Z,6.67
2023-04-15T05:54:56.000Z,6.73
2023-04-15T05:58:57.778Z,6.80
2023-04-15T06:03:00.563Z,6.84
2023-04-15T06:07:02.632Z,6.87
2023-04-15T06:11:04.538Z,6.93
2023-04-15T06:15:06.939Z,6.99
2023-04-15T06:19:08.784Z,7.05
2023-04-15T06:23:10.661Z,7.11
2023-04-15T06:27:12.438Z,7.19
2023-04-15T06:31:14.869Z,7.24
2023-04-15T06:35:16.772Z,7.31
2023-04-15T06:39:18.616Z,7.38
2023-04-15T06:43:21.114Z,7.47
2023-04-15T06:47:23.015Z,7.55
2023-04-15T06:51:26.654Z,7.64
2023-04-15T06:55:28.638Z,7.73
2023-04-15T06:59:30.476Z,7.82
2023-04-15T07:03:33.077Z,7.94
2023-04-15T07:07:35.271Z,8.03
2023-04-15T07:11:37.158Z,8.14
2023-04-15T07:15:39.179Z,8.27
2023-04-15T07:19:41.013Z,8.32
2023-04-15T07:23:42.885Z,8.42
2023-04-15T07:27:44.977Z,8.50
2023-04-15T07:31:47.002Z,8.60
2023-04-15T07:35:48.885Z,8.71
2023-04-15T07:39:50.824Z,8.81
2023-04-15T07:43:52.625Z,8.91
2023-04-15T07:47:56.232Z,9.03
2023-04-15T07:52:00.269Z,9.12
2023-04-15T07:56:02.264Z,9.20
2023-04-15T08:00:05.978Z,9.27
2023-04-15T08:04:14.995Z,9.33
2023-04-15T08:08:17.022Z,9.41
2023-04-15T08:12:18.862Z,9.53
2023-04-15T08:16:25.400Z,9.66
2023-04-15T08:20:27.320Z,9.77
2023-04-15T08:24:30.123Z,9.86
2023-04-15T08:28:32.111Z,9.99
2023-04-15T08:32:33.986Z,10.06
2023-04-15T08:36:35.813Z,10.10
2023-04-15T08:40:42.937Z,10.13
2023-04-15T08:44:46.480Z,10.23
2023-04-15T08:48:49.601Z,10.34
2023-04-15T08:52:55.386Z,10.49
2023-04-15T08:56:58.881Z,10.55
2023-04-15T09:01:01.829Z,10.62
2023-04-15T09:05:06.688Z,10.64
2023-04-15T09:09:08.807Z,10.73
2023-04-15T09:13:10.835Z,10.77
2023-04-15T09:17:12.751Z,10.74
2023-04-15T09:21:19.347Z,10.77
2023-04-15T09:25:28.223Z,10.82
2023-04-15T09:29:30.042Z,10.83
2023-04-15T09:33:32.064Z,10.80
2023-04-15T09:37:37.172Z,10.84
2023-04-15T09:41:39.401Z,10.97
2023-04-15T09:45:48.912Z,10.98
2023-04-15T09:49:58.795Z,10.96
2023-04-15T09:54:00.899Z,11.06
2023-04-15T09:58:03.249Z,11.15
2023-04-15T10:02:07.155Z,11.19
2023-04-15T10:06:10.318Z,11.26
2023-04-15T10:10:13.103Z,11.31
2023-04-15T10:14:16.330Z,11.33
2023-04-15T10:18:21.949Z,11.39
2023-04-15T10:22:27.467Z,11.45
2023-04-15T10:26:29.838Z,11.51
2023-04-15T10:30:33.220Z,11.43
2023-04-15T10:34:35.948Z,11.46
2023-04-15T10:38:40.105Z,11.61
2023-04-15T10:42:42.097Z,11.83
2023-04-15T10:46:45.424Z,12.01
2023-04-15T10:50:57.761Z,12.03
2023-04-15T10:55:24.212Z,11.97
2023-04-15T10:59:26.059Z,11.95
2023-04-15T11:03:42.851Z,11.96
2023-04-15T11:07:53.448Z,12.07
2023-04-15T11:12:10.803Z,12.14
2023-04-15T11:16:13.045Z,12.17
2023-04-15T11:20:18.360Z,12.18
2023-04-15T11:24:29.181Z,12.20
2023-04-15T11:28:32.087Z,12.12
2023-04-15T11:32:33.906Z,12.11
2023-04-15T11:36:35.864Z,12.15
2023-04-15T11:40:38.557Z,12.08
2023-04-15T11:44:40.553Z,12.12
2023-04-15T11:48:47.517Z,12.10
2023-04-15T11:52:54.461Z,12.09
2023-04-15T11:56:57.594Z,12.11
2023-04-15T12:01:01.178Z,12.04
2023-04-15T12:05:05.398Z,12.03
2023-04-15T12:09:07.169Z,12.02
2023-04-15T12:13:10.120Z,11.97
2023-04-15T12:17:13.390Z,12.06
2023-04-15T12:21:15.661Z,12.10
2023-04-15T12:25:17.620Z,12.19
2023-04-15T12:29:20.167Z,12.26
2023-04-15T12:33:22.098Z,12.34
2023-04-15T12:37:24.171Z,12.31
2023-04-15T12:41:26.309Z,12.22
2023-04-15T12:45:29.510Z,12.27
2023-04-15T12:49:32.914Z,12.29
2023-04-15T12:53:34.853Z,12.40
2023-04-15T12:57:37.026Z,12.57
2023-04-15T13:01:39.475Z,12.48
2023-04-15T13:05:41.548Z,12.51
2023-04-15T13:09:43.414Z,12.55
2023-04-15T13:13:45.270Z,12.43
2023-04-15T13:17:47.229Z,12.43
2023-04-15T13:21:49.121Z,12.53
2023-04-15T13:25:52.325Z,12.61
2023-04-15T13:29:54.610Z,12.71
2023-04-15T13:33:57.624Z,12.65
2023-04-15T13:37:59.453Z,12.60
2023-04-15T13:42:01.264Z,12.46
2023-04-15T13:46:03.250Z,12.44
2023-04-15T13:50:06.592Z,12.49
2023-04-15T13:54:08.444Z,12.62
2023-04-15T13:58:10.454Z,12.68
2023-04-15T14:02:12.656Z,12.63
2023-04-15T14:06:14.594Z,12.51
2023-04-15T14:10:16.504Z,12.47
2023-04-15T14:14:18.397Z,12.38
2023-04-15T14:18:20.838Z,12.28
2023-04-15T14:22:22.730Z,12.22
2023-04-15T14:26:24.573Z,12.15
2023-04-15T14:30:26.518Z,12.09
2023-04-15T14:34:28.403Z,11.99
2023-04-15T14:38:31.793Z,11.87
2023-04-15T14:42:33.627Z,11.74
2023-04-15T14:46:36.000Z,11.77
2023-04-15T14:50:37.931Z,11.74
2023-04-15T14:54:39.677Z,11.82
2023-04-15T14:58:41.659Z,11.73
2023-04-15T15:02:44.001Z,11.66
2023-04-15T15:06:47.908Z,11.62
2023-04-15T15:10:51.068Z,11.69
2023-04-15T15:14:52.916Z,11.71
2023-04-15T15:18:55.354Z,11.72
2023-04-15T15:22:57.181Z,11.81
2023-04-15T15:26:59.050Z,11.91
2023-04-15T15:31:00.961Z,11.83
2023-04-15T15:35:02.867Z,11.83
2023-04-15T15:39:05.406Z,11.68
2023-04-15T15:43:07.529Z,11.56
2023-04-15T15:47:09.317Z,11.62
2023-04-15T15:51:11.217Z,11.54
2023-04-15T15:55:13.051Z,11.43
2023-04-15T15:59:14.907Z,11.39
2023-04-15T16:03:17.031Z,11.43
2023-04-15T16:07:18.974Z,11.46
2023-04-15T16:11:21.097Z,11.35
2023-04-15T16:15:26.548Z,11.27
2023-04-15T16:19:28.378Z,11.28
2023-04-15T16:23:31.344Z,11.34
2023-04-15T16:27:33.830Z,11.35
2023-04-15T16:31:38.841Z,11.38
2023-04-15T16:35:41.002Z,11.31
2023-04-15T16:39:42.925Z,11.26
2023-04-15T16:43:44.878Z,11.24
2023-04-15T16:47:46.876Z,11.23
2023-04-15T16:51:48.820Z,11.18
2023-04-15T16:55:50.662Z,11.24
2023-04-15T16:59:52.463Z,11.35
2023-04-15T17:03:56.141Z,11.41
2023-04-15T17:07:58.355Z,11.35
2023-04-15T17:12:01.232Z,11.10
2023-04-15T17:16:03.120Z,10.88
2023-04-15T17:20:05.699Z,10.71
2023-04-15T17:24:07.540Z,10.58
2023-04-15T17:28:09.371Z,10.26
2023-04-15T17:32:11.574Z,9.99
2023-04-15T17:36:13.422Z,9.75
2023-04-15T17:40:15.261Z,9.57
2023-04-15T17:44:17.053Z,9.38
2023-04-15T17:48:19.006Z,9.20
2023-04-15T17:52:20.884Z,9.06
2023-04-15T17:56:22.770Z,8.93
2023-04-15T18:00:24.732Z,8.86
2023-04-15T18:04:27.004Z,8.81
2023-04-15T18:08:29.245Z,8.79
2023-04-15T18:12:31.147Z,8.74
2023-04-15T18:16:33.100Z,8.70
2023-04-15T18:20:35.024Z,8.65
2023-04-15T18:24:36.846Z,8.55
2023-04-15T18:28:39.967Z,8.46
2023-04-15T18:32:42.149Z,8.37
2023-04-15T18:36:43.989Z,8.40
2023-04-15T18:40:45.794Z,8.41
2023-04-15T18:44:47.570Z,8.35
2023-04-15T18:48:49.375Z,8.34
2023-04-15T18:52:51.372Z,8.32
2023-04-15T18:56:53.256Z,8.31
2023-04-15T19:00:55.279Z,8.16
2023-04-15T19:04:57.159Z,8.06
2023-04-15T19:08:59.021Z,8.00
2023-04-15T19:13:00.926Z,7.95
2023-04-15T19:17:02.816Z,7.93
2023-04-15T19:21:04.755Z,7.94
2023-04-15T19:25:06.945Z,7.93
2023-04-15T19:29:08.766Z,7.92
2023-04-15T19:33:10.644Z,7.93
2023-04-15T19:37:12.875Z,7.90
2023-04-15T19:41:15.665Z,7.85
2023-04-15T19:45:17.467Z,7.81
2023-04-15T19:49:19.594Z,7.78
2023-04-15T19:53:21.423Z,7.78
2023-04-15T19:57:23.166Z,7.73
2023-04-15T20:01:25.029Z,7.70
2023-04-15T20:05:26.950Z,7.69
2023-04-15T20:09:28.699Z,7.68
2023-04-15T20:13:30.538Z,7.66
2023-04-15T20:17:36.632Z,7.62
2023-04-15T20:21:39.223Z,7.61
2023-04-15T20:25:42.349Z,7.62
2023-04-15T20:29:44.339Z,7.64
2023-04-15T20:33:46.125Z,7.65
2023-04-15T20:37:49.047Z,7.68
2023-04-15T20:41:51.220Z,7.69
2023-04-15T20:45:54.315Z,7.73
2023-04-15T20:49:56.376Z,7.70
2023-04-15T20:53:58.225Z,7.67
2023-04-15T20:58:00.044Z,7.67
2023-04-15T21:02:02.304Z,7.69
2023-04-15T21:06:04.194Z,7.70
2023-04-15T21:10:06.501Z,7.68
2023-04-15T21:14:08.832Z,7.71
2023-04-15T21:18:10.684Z,7.74
2023-04-15T21:22:12.497Z,7.74
2023-04-15T21:26:14.315Z,7.75
2023-04-15T21:30:16.187Z,7.76
2023-04-15T21:34:18.126Z,7.78
2023-04-15T21:38:23.160Z,7.79
2023-04-15T21:42:25.295Z,7.84
2023-04-15T21:46:33.288Z,7.86
2023-04-15T21:50:38.368Z,7.87
2023-04-15T21:54:40.383Z,7.88
2023-04-15T21:58:42.283Z,7.88
2023-04-15T22:02:44.340Z,7.88
2023-04-15T22:06:46.629Z,7.88
2023-04-15T22:10:48.526Z,7.89
2023-04-15T22:14:50.452Z,7.89
2023-04-15T22:18:52.549Z,7.85
2023-04-15T22:22:54.582Z,7.84
2023-04-15T22:26:56.925Z,7.87
2023-04-15T22:30:59.211Z,7.89
2023-04-15T22:35:01.638Z,7.90
2023-04-15T22:39:03.741Z,7.90
2023-04-15T22:43:05.754Z,7.89
2023-04-15T22:47:07.583Z,7.92
2023-04-15T22:51:09.441Z,7.93
2023-04-15T22:55:11.282Z,7.94
2023-04-15T22:59:13.083Z,7.92
2023-04-15T23:03:15.138Z,7.92
2023-04-15T23:07:17.092Z,7.87
2023-04-15T23:11:18.940Z,7.83
2023-04-15T23:15:21.269Z,7.78
2023-04-15T23:19:23.127Z,7.74
2023-04-15T23:23:25.089Z,7.73
2023-04-15T23:27:26.937Z,7.72
2023-04-15T23:31:28.840Z,7.68
2023-04-15T23:35:30.984Z,7.67
2023-04-15T23:39:32.784Z,7.63
2023-04-15T23:43:34.758Z,7.59
2023-04-15T23:47:36.642Z,7.55
2023-04-15T23:51:38.528Z,7.52
2023-04-15T23:55:40.456Z,7.46
2023-04-15T23:59:42.321Z,7.45
